Data for 04/17/2009

Time Sea-Level Adjusted Pressure Absolute Pressure Temperature Relative Humidity Dew Point   
(mb) (inHg) (mb) (inHg) (C) (F) (%) (C) (F)
00:05 1026 30.3 856 25.28 0.4 32.7 86 -1.6 29.1
00:10 1026 30.3 856 25.28 0.5 32.9 87 -1.5 29.4
00:15 1026 30.3 856 25.28 0.5 32.9 86 -1.5 29.2
00:20 1026 30.3 856 25.28 0.7 33.3 85 -1.5 29.4
00:25 1026 30.3 856 25.28 0.8 33.5 84 -1.6 29.1
00:30 1026 30.3 856 25.28 0.9 33.6 85 -1.4 29.4
00:35 1026 30.3 856 25.28 0.9 33.5 84 -1.5 29.3
00:40 1026 30.3 856 25.28 0.8 33.5 85 -1.5 29.4
00:45 1027 30.33 856 25.28 0.8 33.5 86 -1.3 29.7
00:50 1027 30.33 856 25.28 0.7 33.2 87 -1.3 29.7
00:55 1027 30.33 856 25.28 0.5 32.9 88 -1.3 29.6
01:00 1027 30.33 856 25.28 0.6 33 88 -1.2 29.9
01:05 1027 30.33 856 25.28 0.5 32.9 89 -1.1 30
01:10 1026 30.3 856 25.28 0.5 32.9 89 -1.1 30
01:15 1027 30.33 856 25.28 0.6 33 88 -1.2 29.9
01:20 1027 30.33 856 25.28 0.6 33 88 -1.2 29.8
01:25 1026 30.3 856 25.28 0.6 33 88 -1.2 29.8
01:30 1026 30.3 856 25.28 0.6 33 87 -1.4 29.5
01:35 1027 30.33 856 25.28 0.6 33 88 -1.2 29.8
01:40 1027 30.33 856 25.28 0.6 33 87 -1.3 29.6
01:45 1027 30.33 856 25.28 0.6 33.1 87 -1.3 29.7
01:50 1027 30.33 856 25.28 0.4 32.8 89 -1.2 29.9
01:55 1026 30.3 856 25.28 0.4 32.7 89 -1.1 29.9
02:00 1026 30.3 856 25.28 0.3 32.5 88 -1.4 29.5
02:05 1027 30.33 856 25.28 0.3 32.5 90 -1.2 29.8
02:10 1027 30.33 856 25.28 0.3 32.5 89 -1.3 29.6
02:15 1027 30.33 856 25.28 0.4 32.7 89 -1.3 29.7
02:20 1027 30.33 856 25.28 0.5 32.8 88 -1.4 29.6
02:25 1027 30.33 856 25.28 0.4 32.7 89 -1.3 29.7
02:30 1027 30.33 856 25.28 0.3 32.6 88 -1.5 29.4
02:35 1026 30.3 856 25.28 0.2 32.4 88 -1.5 29.3
02:40 1026 30.3 856 25.28 0.2 32.3 89 -1.4 29.5
02:45 1027 30.33 856 25.28 0.1 32.2 90 -1.4 29.4
02:50 1026 30.3 856 25.28 0.1 32.2 89 -1.5 29.3
02:55 1026 30.3 856 25.28 0.1 32.3 89 -1.5 29.2
03:00 1026 30.3 856 25.28 0.2 32.3 89 -1.5 29.4
03:05 1026 30.3 856 25.28 0.2 32.3 89 -1.4 29.5
03:10 1026 30.3 855 25.25 0.1 32.3 90 -1.4 29.5
03:15 1026 30.3 855 25.25 0.1 32.2 89 -1.5 29.4
03:20 1026 30.3 855 25.25 0.1 32.2 89 -1.5 29.3
03:25 1026 30.3 855 25.25 0.1 32.2 89 -1.5 29.3
03:30 1026 30.3 855 25.25 0.1 32.2 89 -1.5 29.3
03:35 1026 30.3 855 25.25 0.1 32.2 89 -1.5 29.3
03:40 1026 30.3 855 25.25 0.1 32.2 89 -1.5 29.2
03:45 1026 30.3 855 25.25 0.1 32.2 89 -1.5 29.3
03:50 1026 30.3 855 25.25 0.2 32.3 88 -1.6 29.1
03:55 1026 30.3 855 25.25 0.2 32.4 87 -1.7 28.9
04:00 1026 30.3 855 25.25 0.3 32.5 87 -1.6 29.1
04:05 1026 30.3 855 25.25 0.3 32.5 87 -1.7 28.9
04:10 1026 30.3 855 25.25 0.3 32.5 86 -1.7 28.9
04:15 1026 30.3 855 25.25 0.3 32.6 86 -1.7 28.9
04:20 1026 30.3 855 25.25 0.3 32.6 87 -1.7 29
04:25 1026 30.3 855 25.25 0.3 32.5 87 -1.7 29
04:30 1026 30.3 855 25.25 0.3 32.5 87 -1.7 29
04:35 1026 30.3 855 25.25 0.3 32.5 86 -1.8 28.8
04:40 1026 30.3 855 25.25 0.3 32.6 86 -1.8 28.8
04:45 1026 30.3 855 25.25 0.4 32.7 87 -1.6 29.1
04:50 1026 30.3 855 25.25 0.4 32.7 86 -1.7 29
04:55 1026 30.3 855 25.25 0.4 32.8 85 -1.7 28.9
05:00 1026 30.3 855 25.25 0.5 32.9 85 -1.7 28.9
05:05 1026 30.3 855 25.25 0.4 32.8 86 -1.7 29
05:10 1026 30.3 855 25.25 0.5 32.8 85 -1.7 28.9
05:15 1026 30.3 855 25.25 0.3 32.6 87 -1.6 29
05:20 1026 30.3 855 25.25 0.3 32.5 87 -1.7 29
05:25 1026 30.3 855 25.25 0.3 32.5 87 -1.7 29
05:30 1026 30.3 855 25.25 0.4 32.6 86 -1.7 28.9
05:35 1026 30.3 855 25.25 0.4 32.7 85 -1.8 28.8
05:40 1026 30.3 855 25.25 0.5 32.8 85 -1.8 28.8
05:45 1026 30.3 855 25.25 0.4 32.8 86 -1.6 29.1
05:50 1026 30.3 855 25.25 0.4 32.7 86 -1.7 29
05:55 1026 30.3 855 25.25 0.4 32.7 86 -1.6 29.1
06:00 1026 30.3 855 25.25 0.5 32.8 85 -1.8 28.7
06:05 1026 30.3 855 25.25 0.5 32.9 85 -1.8 28.8
06:10 1026 30.3 855 25.25 0.5 33 86 -1.6 29.1
06:15 1026 30.3 855 25.25 0.5 32.9 86 -1.6 29
06:20 1026 30.3 855 25.25 0.5 32.9 86 -1.7 29
06:25 1026 30.3 855 25.25 0.5 32.9 86 -1.6 29.1
06:30 1026 30.3 855 25.25 0.5 32.8 86 -1.6 29.1
06:35 1026 30.3 855 25.25 0.4 32.7 86 -1.6 29.1
06:40 1026 30.3 855 25.25 0.3 32.6 87 -1.6 29
06:45 1026 30.3 855 25.25 0.3 32.6 86 -1.7 28.9
06:50 1026 30.3 855 25.25 0.5 32.8 85 -1.7 28.9
06:55 1026 30.3 855 25.25 0.5 32.9 85 -1.8 28.8
07:00 1026 30.3 855 25.25 0.5 33 85 -1.6 29.1
07:05 1026 30.3 855 25.25 0.6 33 85 -1.7 28.9
07:10 1026 30.3 855 25.25 0.6 33.1 85 -1.7 29
07:15 1026 30.3 855 25.25 0.6 33.1 84 -1.7 28.9
07:20 1026 30.3 855 25.25 0.7 33.3 83 -1.8 28.8
07:25 1026 30.3 855 25.25 0.8 33.5 83 -1.7 28.9
07:30 1026 30.3 855 25.25 1 33.7 83 -1.6 29.1
07:35 1026 30.3 855 25.25 1 33.8 82 -1.8 28.7
07:40 1026 30.3 855 25.25 1 33.9 82 -1.7 29
07:45 1026 30.3 855 25.25 1.1 33.9 82 -1.6 29.1
07:50 1026 30.3 855 25.25 1.2 34.1 81 -1.8 28.8
07:55 1026 30.3 855 25.25 1.2 34.1 81 -1.7 28.9
08:00 1026 30.3 855 25.25 1.2 34.2 80 -1.9 28.6
08:05 1026 30.3 855 25.25 1.4 34.6 80 -1.7 28.9
08:10 1026 30.3 855 25.25 1.5 34.8 80 -1.5 29.2
08:15 1026 30.3 855 25.25 1.7 35.1 78 -1.7 28.9
08:20 1026 30.3 855 25.25 1.8 35.3 79 -1.5 29.3
08:25 1026 30.3 855 25.25 1.9 35.4 78 -1.6 29
08:30 1026 30.3 855 25.25 2.3 36.1 75 -1.8 28.8
08:35 1026 30.3 855 25.25 2.5 36.5 75 -1.6 29.2
08:40 1026 30.3 855 25.25 2.3 36.1 76 -1.6 29.2
08:45 1026 30.3 855 25.25 2.3 36.2 74 -1.8 28.7
08:50 1026 30.3 855 25.25 2.4 36.3 75 -1.7 29
08:55 1026 30.3 855 25.25 2.6 36.6 73 -1.8 28.8
09:00 1026 30.3 855 25.25 2.8 37.1 72 -1.6 29.1
09:05 1026 30.3 855 25.25 2.9 37.1 73 -1.5 29.3
09:10 1026 30.3 855 25.25 3.1 37.6 71 -1.7 29
09:15 1026 30.3 855 25.25 3.3 38 70 -1.6 29.2
09:20 1026 30.3 855 25.25 3.6 38.4 69 -1.6 29
09:25 1026 30.3 855 25.25 3.4 38.1 69 -1.8 28.7
09:30 1026 30.3 855 25.25 3.4 38.1 68 -1.9 28.6
09:35 1026 30.3 855 25.25 3.7 38.7 68 -1.7 29
09:40 1026 30.3 855 25.25 4 39.2 66 -1.7 28.9
09:45 1026 30.3 855 25.25 3.8 38.9 68 -1.6 29.1
09:50 1026 30.3 855 25.25 3.8 38.9 68 -1.5 29.3
09:55 1026 30.3 855 25.25 3.9 39 67 -1.6 29.1
10:00 1026 30.3 855 25.25 4 39.1 67 -1.6 29.2
10:05 1026 30.3 855 25.25 3.7 38.6 69 -1.6 29.2
10:10 1026 30.3 855 25.25 3.6 38.5 67 -1.9 28.6
10:15 1026 30.3 855 25.25 3.6 38.5 68 -1.8 28.8
10:20 1026 30.3 855 25.25 4.1 39.4 64 -2 28.4
10:25 1026 30.3 855 25.25 4.8 40.7 62 -1.8 28.8
10:30 1026 30.3 855 25.25 4.8 40.7 62 -1.8 28.8
10:35 1026 30.3 855 25.25 5 40.9 62 -1.7 29
10:40 1026 30.3 855 25.25 5.3 41.6 60 -1.8 28.8
10:45 1026 30.3 855 25.25 4.7 40.5 60 -2.5 27.6
10:50 1026 30.3 855 25.25 4.6 40.3 62 -2.1 28.2
10:55 1026 30.3 855 25.25 5.2 41.4 59 -2.1 28.2
11:00 1026 30.3 855 25.25 5.3 41.5 58 -2.4 27.7
11:05 1026 30.3 855 25.25 5.1 41.2 56 -2.9 26.8
11:10 1026 30.3 855 25.25 5.4 41.7 55 -2.8 26.9
11:15 1026 30.3 855 25.25 5.6 42.1 53 -3.2 26.3
11:20 1026 30.3 855 25.25 6.3 43.4 52 -2.8 26.9
11:25 1026 30.3 855 25.25 5.8 42.5 54 -2.8 26.9
11:30 1026 30.3 855 25.25 5.6 42.1 56 -2.5 27.5
11:35 1026 30.3 855 25.25 5.3 41.5 56 -2.7 27.1
11:40 1026 30.3 855 25.25 5.4 41.7 57 -2.5 27.6
11:45 1026 30.3 855 25.25 5.1 41.2 58 -2.5 27.5
11:50 1026 30.3 855 25.25 5.4 41.7 55 -3 26.6
11:55 1026 30.3 855 25.25 5.7 42.2 55 -2.7 27.1
12:00 1026 30.3 855 25.25 6 42.8 55 -2.4 27.7
12:05 1026 30.3 855 25.25 6.5 43.7 55 -2 28.4
12:10 1026 30.3 855 25.25 6.2 43.2 56 -1.9 28.5
12:15 1026 30.3 855 25.25 5.6 42.1 57 -2.3 27.8
12:20 1026 30.3 855 25.25 6.3 43.4 54 -2.3 27.8
12:25 1026 30.3 855 25.25 7.5 45.4 49 -2.5 27.5
12:30 1026 30.3 855 25.25 7.6 45.7 53 -1.4 29.4
12:35 1026 30.3 855 25.25 6.7 44.1 51 -2.6 27.3
12:40 1025 30.27 855 25.25 6.6 43.9 54 -2 28.4
12:45 1025 30.27 855 25.25 6.1 42.9 53 -2.8 26.9
12:50 1025 30.27 854 25.22 7.1 44.7 50 -2.5 27.4
12:55 1025 30.27 854 25.22 7.2 45 50 -2.5 27.6
13:00 1025 30.27 854 25.22 7 44.7 51 -2.3 27.9
13:05 1025 30.27 854 25.22 6.8 44.3 53 -2.1 28.3
13:10 1025 30.27 854 25.22 6.8 44.3 52 -2.4 27.6
13:15 1025 30.27 854 25.22 6.4 43.6 55 -2 28.4
13:20 1025 30.27 854 25.22 6.6 43.9 53 -2.2 28
13:25 1025 30.27 854 25.22 7.2 44.9 50 -2.5 27.4
13:30 1025 30.27 854 25.22 7.7 45.9 51 -1.9 28.6
13:35 1025 30.27 854 25.22 7.8 46.1 48 -2.4 27.7
13:40 1025 30.27 854 25.22 7.6 45.7 50 -2.2 28
13:45 1025 30.27 854 25.22 8 46.4 48 -2.3 27.9
13:50 1024 30.24 854 25.22 7.9 46.3 50 -1.8 28.8
13:55 1024 30.24 854 25.22 7.5 45.4 50 -2.2 28.1
14:00 1024 30.24 854 25.22 7.3 45.1 53 -1.6 29.2
14:05 1024 30.24 853 25.19 7.5 45.6 51 -1.9 28.6
14:10 1024 30.24 853 25.19 7.4 45.3 54 -1.4 29.5
14:15 1024 30.24 853 25.19 6.4 43.5 56 -1.7 28.9
14:20 1024 30.24 853 25.19 5.8 42.5 57 -2.1 28.2
14:25 1024 30.24 853 25.19 6.4 43.6 53 -2.4 27.6
14:30 1024 30.24 853 25.19 7.3 45.1 52 -1.9 28.6
14:35 1024 30.24 853 25.19 7.3 45.1 53 -1.7 28.9
14:40 1024 30.24 853 25.19 7.2 45 53 -1.8 28.8
14:45 1024 30.24 853 25.19 8 46.3 50 -1.7 28.9
14:50 1024 30.24 853 25.19 7.9 46.2 52 -1.2 29.8
14:55 1024 30.24 853 25.19 7.5 45.4 52 -1.8 28.7
15:00 1024 30.24 853 25.19 7.7 45.8 53 -1.2 29.8
15:05 1023 30.21 853 25.19 8.3 47 49 -1.8 28.7
15:10 1023 30.21 853 25.19 8.2 46.7 52 -1.1 30.1
15:15 1023 30.21 853 25.19 8.6 47.4 50 -1.1 30
15:20 1023 30.21 852 25.16 8.2 46.8 54 -0.5 31.1
15:25 1023 30.21 852 25.16 7.2 45 56 -1 30.2
15:30 1023 30.21 852 25.16 8.1 46.6 53 -0.9 30.5
15:35 1023 30.21 852 25.16 7.8 46 53 -1.1 30.1
15:40 1023 30.21 852 25.16 7.6 45.7 55 -0.8 30.5
15:45 1023 30.21 852 25.16 7.7 45.9 57 -0.2 31.6
15:50 1023 30.21 852 25.16 7.6 45.7 56 -0.7 30.8
15:55 1023 30.21 852 25.16 8.2 46.7 54 -0.6 30.9
16:00 1023 30.21 852 25.16 8.3 46.9 52 -0.9 30.4
16:05 1023 30.21 852 25.16 9.3 48.8 49 -0.8 30.6
16:10 1023 30.21 852 25.16 8.5 47.4 54 -0.2 31.6
16:15 1023 30.21 852 25.16 7.6 45.7 54 -1.2 29.9
16:20 1022 30.18 852 25.16 7.4 45.3 55 -1.1 30
16:25 1022 30.18 852 25.16 7.1 44.8 57 -0.8 30.5
16:30 1022 30.18 852 25.16 7.3 45.2 55 -1 30.2
16:35 1022 30.18 851 25.13 7.5 45.5 55 -0.9 30.4
16:40 1022 30.18 851 25.13 8.1 46.5 53 -0.9 30.4
16:45 1022 30.18 851 25.13 8.7 47.7 53 -0.4 31.3
16:50 1022 30.18 851 25.13 8.4 47.2 54 -0.4 31.3
16:55 1022 30.18 851 25.13 8.4 47 53 -0.6 30.9
17:00 1022 30.18 851 25.13 8.3 47 53 -0.7 30.7
17:05 1022 30.18 851 25.13 9.1 48.3 51 -0.5 31.1
17:10 1022 30.18 851 25.13 9.5 49.2 50 -0.3 31.5
17:15 1022 30.18 851 25.13 9.7 49.4 49 -0.5 31
17:20 1022 30.18 851 25.13 10 50.1 49 -0.2 31.6
17:25 1022 30.18 851 25.13 10.1 50.3 49 -0.2 31.7
17:30 1022 30.18 851 25.13 9.9 49.7 50 -0.1 31.8
17:35 1022 30.18 851 25.13 9.7 49.4 51 -0.1 31.9
17:40 1022 30.18 851 25.13 9.8 49.6 49 -0.2 31.6
17:45 1022 30.18 851 25.13 9.7 49.4 52 0.4 32.8
17:50 1022 30.18 851 25.13 8.5 47.3 56 0.2 32.4
17:55 1022 30.18 851 25.13 7.9 46.1 56 -0.3 31.5
18:00 1022 30.18 851 25.13 8.3 46.9 57 0.3 32.5
18:05 1022 30.18 851 25.13 7.8 46.1 56 -0.3 31.5
18:10 1022 30.18 851 25.13 7 44.6 62 0.1 32.3
18:15 1022 30.18 851 25.13 6.3 43.4 65 0.2 32.3
18:20 1022 30.18 851 25.13 6.2 43.2 62 -0.4 31.2
18:25 1022 30.18 851 25.13 6.1 43 64 -0.2 31.6
18:30 1022 30.18 851 25.13 6.1 43 63 -0.3 31.4
18:35 1022 30.18 851 25.13 6.1 43 64 -0.1 31.7
18:40 1022 30.18 851 25.13 6.1 42.9 65 -0.1 31.9
18:45 1022 30.18 851 25.13 6.1 42.9 65 -0.1 31.9
18:50 1022 30.18 851 25.13 6.3 43.3 64 0.1 32.1
18:55 1022 30.18 851 25.13 6.4 43.6 64 0.1 32.2
19:00 1022 30.18 851 25.13 6.6 43.9 64 0.3 32.5
19:05 1022 30.18 851 25.13 6.7 44 64 0.3 32.6
19:10 1022 30.18 851 25.13 6.7 44.1 65 0.5 33
19:15 1022 30.18 851 25.13 6.8 44.3 64 0.4 32.8
19:20 1022 30.18 851 25.13 6.9 44.4 64 0.6 33
19:25 1022 30.18 851 25.13 6.9 44.4 63 0.5 32.9
19:30 1022 30.18 851 25.13 6.9 44.5 64 0.6 33
19:35 1022 30.18 851 25.13 6.9 44.5 64 0.7 33.2
19:40 1022 30.18 851 25.13 6.9 44.3 65 0.7 33.2
19:45 1022 30.18 851 25.13 6.8 44.2 65 0.8 33.4
19:50 1022 30.18 851 25.13 6.7 44.1 66 0.8 33.4
19:55 1022 30.18 851 25.13 6.6 43.9 66 0.8 33.5
20:00 1022 30.18 851 25.13 6.4 43.6 68 1.1 33.9
20:05 1022 30.18 851 25.13 6.3 43.3 69 1.1 33.9
20:10 1022 30.18 851 25.13 6 42.9 70 0.9 33.7
20:15 1022 30.18 851 25.13 5.9 42.7 70 0.9 33.6
20:20 1022 30.18 851 25.13 5.8 42.5 71 0.9 33.7
20:25 1022 30.18 851 25.13 5.6 42.1 72 0.9 33.6
20:30 1022 30.18 851 25.13 5.4 41.7 75 1.3 34.4
20:35 1022 30.18 851 25.13 5.3 41.5 77 1.6 34.9
20:40 1022 30.18 851 25.13 4.9 40.9 78 1.4 34.6
20:45 1022 30.18 851 25.13 4.8 40.7 78 1.3 34.3
20:50 1022 30.18 851 25.13 5.1 41.2 75 1 33.8
20:55 1022 30.18 851 25.13 5.3 41.5 75 1.3 34.3
21:00 1022 30.18 851 25.13 5.1 41.2 76 1.2 34.2
21:05 1022 30.18 852 25.16 4.9 40.9 77 1.3 34.3
21:10 1022 30.18 852 25.16 4.7 40.4 79 1.3 34.3
21:15 1022 30.18 852 25.16 4.2 39.5 81 1.1 34.1
21:20 1022 30.18 852 25.16 3.9 39 82 1.1 33.9
21:25 1022 30.18 852 25.16 3.6 38.5 83 1 33.8
21:30 1022 30.18 852 25.16 3.6 38.5 83 1 33.8
21:35 1023 30.21 852 25.16 3.6 38.4 84 1.2 34.1
21:40 1023 30.21 852 25.16 3.7 38.6 83 1 33.8
21:45 1023 30.21 852 25.16 3.6 38.5 82 0.9 33.7
21:50 1023 30.21 852 25.16 3.5 38.4 82 0.8 33.4
21:55 1023 30.21 852 25.16 3.3 38 83 0.7 33.3
22:00 1023 30.21 852 25.16 3.1 37.6 84 0.6 33.1
22:05 1023 30.21 852 25.16 3 37.4 83 0.5 32.8
22:10 1023 30.21 852 25.16 3.1 37.7 82 0.4 32.7
22:15 1023 30.21 852 25.16 3.4 38.1 81 0.5 32.8
22:20 1023 30.21 852 25.16 3.5 38.3 81 0.5 32.9
22:25 1023 30.21 852 25.16 3.5 38.3 81 0.6 33.1
22:30 1023 30.21 852 25.16 3.4 38 82 0.5 32.9
22:35 1023 30.21 852 25.16 3.3 37.9 81 0.3 32.6
22:40 1023 30.21 852 25.16 3.3 37.9 82 0.5 32.8
22:45 1023 30.21 852 25.16 3.4 38 80 0.3 32.5
22:50 1023 30.21 852 25.16 3.5 38.3 81 0.5 32.8
22:55 1023 30.21 852 25.16 3.3 37.9 82 0.5 32.8
23:00 1023 30.21 852 25.16 3 37.4 83 0.4 32.8
23:05 1023 30.21 852 25.16 2.9 37.2 85 0.6 33.1
23:10 1023 30.21 852 25.16 2.9 37.2 85 0.5 33
23:15 1023 30.21 852 25.16 2.9 37.1 84 0.5 32.9
23:20 1023 30.21 852 25.16 2.9 37.2 84 0.4 32.7
23:25 1023 30.21 852 25.16 2.8 37 85 0.5 32.8
23:30 1023 30.21 852 25.16 2.7 36.9 85 0.5 32.9
23:35 1023 30.21 852 25.16 2.8 37 85 0.5 32.9
23:40 1023 30.21 852 25.16 2.7 36.8 84 0.3 32.5
23:45 1023 30.21 852 25.16 2.6 36.8 84 0.2 32.4
23:50 1023 30.21 852 25.16 2.4 36.3 85 0.2 32.3
23:55 1023 30.21 852 25.16 2.2 36 86 0.1 32.2
24:00 1023 30.21 852 25.16 1.9 35.5 87 -0 31.9